sensor_id;sensor_type;location;lat;lon;timestamp;pressure;altitude;pressure_sealevel;temperature;humidity
23427;BME280;41148;45.420;10.952;2023-02-15T00:00:09;102221.50;;;5.38;74.50
23427;BME280;41148;45.420;10.952;2023-02-15T00:02:40;102228.63;;;5.40;74.36
23427;BME280;41148;45.420;10.952;2023-02-15T00:05:08;102224.06;;;5.32;74.12
23427;BME280;41148;45.420;10.952;2023-02-15T00:07:36;102239.94;;;5.32;74.15
23427;BME280;41148;45.420;10.952;2023-02-15T00:10:03;102225.75;;;5.28;74.29
23427;BME280;41148;45.420;10.952;2023-02-15T00:12:31;102231.91;;;5.27;74.67
23427;BME280;41148;45.420;10.952;2023-02-15T00:14:58;102238.94;;;5.27;74.39
23427;BME280;41148;45.420;10.952;2023-02-15T00:17:29;102230.84;;;5.19;74.79
23427;BME280;41148;45.420;10.952;2023-02-15T00:19:57;102235.06;;;5.08;75.30
23427;BME280;41148;45.420;10.952;2023-02-15T00:22:25;102219.81;;;4.93;75.59
23427;BME280;41148;45.420;10.952;2023-02-15T00:24:53;102231.22;;;4.92;75.77
23427;BME280;41148;45.420;10.952;2023-02-15T00:27:21;102240.00;;;4.91;75.95
23427;BME280;41148;45.420;10.952;2023-02-15T00:29:48;102234.81;;;4.94;76.13
23427;BME280;41148;45.420;10.952;2023-02-15T00:32:16;102232.34;;;5.03;75.22
23427;BME280;41148;45.420;10.952;2023-02-15T00:34:44;102235.06;;;5.08;74.14
23427;BME280;41148;45.420;10.952;2023-02-15T00:37:11;102229.56;;;4.97;74.11
23427;BME280;41148;45.420;10.952;2023-02-15T00:39:39;102230.31;;;4.90;74.96
23427;BME280;41148;45.420;10.952;2023-02-15T00:42:06;102222.41;;;4.92;74.60
23427;BME280;41148;45.420;10.952;2023-02-15T00:44:34;102226.94;;;4.97;74.41
23427;BME280;41148;45.420;10.952;2023-02-15T00:47:01;102224.22;;;4.93;74.46
23427;BME280;41148;45.420;10.952;2023-02-15T00:49:28;102215.28;;;4.86;74.51
23427;BME280;41148;45.420;10.952;2023-02-15T00:51:56;102218.06;;;4.94;74.78
23427;BME280;41148;45.420;10.952;2023-02-15T00:54:23;102222.50;;;4.95;74.37
23427;BME280;41148;45.420;10.952;2023-02-15T00:56:50;102218.81;;;4.86;74.46
23427;BME280;41148;45.420;10.952;2023-02-15T00:59:19;102217.97;;;4.91;74.59
23427;BME280;41148;45.420;10.952;2023-02-15T01:01:47;102217.06;;;4.88;74.59
23427;BME280;41148;45.420;10.952;2023-02-15T01:04:14;102203.41;;;4.66;75.60
23427;BME280;41148;45.420;10.952;2023-02-15T01:06:42;102206.81;;;4.60;76.47
23427;BME280;41148;45.420;10.952;2023-02-15T01:09:09;102200.66;;;4.61;76.17
23427;BME280;41148;45.420;10.952;2023-02-15T01:11:37;102199.31;;;4.81;75.77
23427;BME280;41148;45.420;10.952;2023-02-15T01:14:04;102201.19;;;4.87;75.31
23427;BME280;41148;45.420;10.952;2023-02-15T01:16:32;102204.22;;;5.07;74.75
23427;BME280;41148;45.420;10.952;2023-02-15T01:18:59;102206.09;;;5.12;74.53
23427;BME280;41148;45.420;10.952;2023-02-15T01:21:31;102200.72;;;5.08;74.28
23427;BME280;41148;45.420;10.952;2023-02-15T01:24:02;102197.91;;;5.00;74.43
23427;BME280;41148;45.420;10.952;2023-02-15T01:26:30;102200.66;;;5.03;74.22
23427;BME280;41148;45.420;10.952;2023-02-15T01:28:58;102191.41;;;4.81;75.70
23427;BME280;41148;45.420;10.952;2023-02-15T01:31:26;102193.94;;;4.75;75.80
23427;BME280;41148;45.420;10.952;2023-02-15T01:33:53;102201.00;;;4.76;75.82
23427;BME280;41148;45.420;10.952;2023-02-15T01:36:20;102194.84;;;4.77;75.89
23427;BME280;41148;45.420;10.952;2023-02-15T01:38:48;102194.88;;;4.79;74.69
23427;BME280;41148;45.420;10.952;2023-02-15T01:41:16;102185.09;;;4.73;74.63
23427;BME280;41148;45.420;10.952;2023-02-15T01:43:50;102193.91;;;4.74;74.69
23427;BME280;41148;45.420;10.952;2023-02-15T01:46:22;102186.03;;;4.77;74.59
23427;BME280;41148;45.420;10.952;2023-02-15T01:49:08;102170.84;;;4.64;74.96
23427;BME280;41148;45.420;10.952;2023-02-15T01:51:39;102187.44;;;4.59;75.04
23427;BME280;41148;45.420;10.952;2023-02-15T01:54:31;102186.00;;;4.74;74.67
23427;BME280;41148;45.420;10.952;2023-02-15T01:57:03;102182.47;;;4.73;74.70
23427;BME280;41148;45.420;10.952;2023-02-15T01:59:33;102187.84;;;4.79;73.99
23427;BME280;41148;45.420;10.952;2023-02-15T02:02:03;102184.06;;;4.65;74.50
23427;BME280;41148;45.420;10.952;2023-02-15T02:04:37;102185.16;;;4.76;74.07
23427;BME280;41148;45.420;10.952;2023-02-15T02:07:06;102185.16;;;4.76;74.09
23427;BME280;41148;45.420;10.952;2023-02-15T02:09:36;102170.19;;;4.75;74.04
23427;BME280;41148;45.420;10.952;2023-02-15T02:12:04;102177.22;;;4.76;73.96
23427;BME280;41148;45.420;10.952;2023-02-15T02:14:32;102183.28;;;4.72;73.94
23427;BME280;41148;45.420;10.952;2023-02-15T02:17:13;102182.53;;;4.78;73.92
23427;BME280;41148;45.420;10.952;2023-02-15T02:28:13;102171.97;;;4.78;73.69
23427;BME280;41148;45.420;10.952;2023-02-15T02:34:16;102166.81;;;4.84;73.19
23427;BME280;41148;45.420;10.952;2023-02-15T02:36:58;102166.84;;;4.85;72.93
23427;BME280;41148;45.420;10.952;2023-02-15T02:39:55;102162.91;;;4.64;73.91
23427;BME280;41148;45.420;10.952;2023-02-15T02:42:42;102168.94;;;4.58;74.43
23427;BME280;41148;45.420;10.952;2023-02-15T02:45:23;102170.84;;;4.64;74.22
23427;BME280;41148;45.420;10.952;2023-02-15T02:47:59;102163.81;;;4.66;73.92
23427;BME280;41148;45.420;10.952;2023-02-15T02:50:29;102156.97;;;4.75;73.62
23427;BME280;41148;45.420;10.952;2023-02-15T02:52:58;102151.72;;;4.77;73.25
23427;BME280;41148;45.420;10.952;2023-02-15T02:55:47;102150.91;;;4.82;72.81
23427;BME280;41148;45.420;10.952;2023-02-15T02:58:37;102155.31;;;4.82;73.53
23427;BME280;41148;45.420;10.952;2023-02-15T03:01:14;102147.34;;;4.79;73.37
23427;BME280;41148;45.420;10.952;2023-02-15T03:03:47;102138.34;;;4.68;73.09
23427;BME280;41148;45.420;10.952;2023-02-15T03:06:29;102137.25;;;4.56;73.53
23427;BME280;41148;45.420;10.952;2023-02-15T03:09:08;102140.75;;;4.55;73.46
23427;BME280;41148;45.420;10.952;2023-02-15T03:11:43;102125.78;;;4.54;73.50
23427;BME280;41148;45.420;10.952;2023-02-15T03:14:14;102139.19;;;4.65;73.13
23427;BME280;41148;45.420;10.952;2023-02-15T03:16:46;102126.06;;;4.71;73.17
23427;BME280;41148;45.420;10.952;2023-02-15T03:19:40;102124.19;;;4.64;73.27
23427;BME280;41148;45.420;10.952;2023-02-15T03:22:14;102116.19;;;4.59;73.44
23427;BME280;41148;45.420;10.952;2023-02-15T03:24:47;102113.53;;;4.59;73.57
23427;BME280;41148;45.420;10.952;2023-02-15T03:27:22;102111.78;;;4.60;73.29
23427;BME280;41148;45.420;10.952;2023-02-15T03:29:58;102111.53;;;4.46;74.29
23427;BME280;41148;45.420;10.952;2023-02-15T03:32:29;102106.16;;;4.42;74.27
23427;BME280;41148;45.420;10.952;2023-02-15T03:34:58;102114.63;;;4.25;75.00
23427;BME280;41148;45.420;10.952;2023-02-15T03:37:33;102108.53;;;4.29;75.12
23427;BME280;41148;45.420;10.952;2023-02-15T03:40:17;102101.75;;;4.42;74.29
23427;BME280;41148;45.420;10.952;2023-02-15T03:43:12;102109.69;;;4.44;74.13
23427;BME280;41148;45.420;10.952;2023-02-15T03:45:47;102106.91;;;4.35;74.45
23427;BME280;41148;45.420;10.952;2023-02-15T03:48:28;102097.09;;;4.27;74.93
23427;BME280;41148;45.420;10.952;2023-02-15T03:51:02;102096.06;;;4.21;74.80
23427;BME280;41148;45.420;10.952;2023-02-15T03:53:51;102089.56;;;4.05;75.76
23427;BME280;41148;45.420;10.952;2023-02-15T03:56:19;102106.56;;;4.18;75.47
23427;BME280;41148;45.420;10.952;2023-02-15T03:58:47;102105.69;;;4.19;75.31
23427;BME280;41148;45.420;10.952;2023-02-15T04:04:40;102094.97;;;4.11;75.11
23427;BME280;41148;45.420;10.952;2023-02-15T04:07:09;102099.97;;;3.97;75.84
23427;BME280;41148;45.420;10.952;2023-02-15T04:09:36;102100.75;;;3.93;75.74
23427;BME280;41148;45.420;10.952;2023-02-15T04:12:22;102104.50;;;4.05;75.41
23427;BME280;41148;45.420;10.952;2023-02-15T04:14:49;102099.16;;;4.00;75.94
23427;BME280;41148;45.420;10.952;2023-02-15T04:17:37;102092.16;;;4.02;75.26
23427;BME280;41148;45.420;10.952;2023-02-15T04:20:05;102103.91;;;4.18;74.82
23427;BME280;41148;45.420;10.952;2023-02-15T04:22:51;102089.03;;;4.21;74.26
23427;BME280;41148;45.420;10.952;2023-02-15T04:25:37;102099.63;;;4.24;74.21
23427;BME280;41148;45.420;10.952;2023-02-15T04:28:04;102093.34;;;4.16;74.55
23427;BME280;41148;45.420;10.952;2023-02-15T04:30:32;102096.06;;;4.21;74.31
23427;BME280;41148;45.420;10.952;2023-02-15T04:33:00;102091.72;;;4.24;73.97
23427;BME280;41148;45.420;10.952;2023-02-15T04:35:27;102086.56;;;4.29;73.81
23427;BME280;41148;45.420;10.952;2023-02-15T04:37:55;102091.91;;;4.34;73.42
23427;BME280;41148;45.420;10.952;2023-02-15T04:40:23;102088.38;;;4.33;73.43
23427;BME280;41148;45.420;10.952;2023-02-15T04:42:50;102092.78;;;4.32;73.50
23427;BME280;41148;45.420;10.952;2023-02-15T04:45:18;102103.31;;;4.31;73.84
23427;BME280;41148;45.420;10.952;2023-02-15T04:47:45;102097.94;;;4.26;74.08
23427;BME280;41148;45.420;10.952;2023-02-15T04:50:12;102090.81;;;4.22;74.70
23427;BME280;41148;45.420;10.952;2023-02-15T04:52:40;102092.34;;;4.11;75.47
23427;BME280;41148;45.420;10.952;2023-02-15T04:55:07;102106.34;;;4.07;75.15
23427;BME280;41148;45.420;10.952;2023-02-15T04:57:35;102107.34;;;4.14;74.20
23427;BME280;41148;45.420;10.952;2023-02-15T05:00:03;102103.75;;;4.10;74.60
23427;BME280;41148;45.420;10.952;2023-02-15T05:02:30;102105.34;;;4.02;75.09
23427;BME280;41148;45.420;10.952;2023-02-15T05:04:58;102108.66;;;3.93;74.99
23427;BME280;41148;45.420;10.952;2023-02-15T05:07:25;102087.44;;;3.87;74.82
23427;BME280;41148;45.420;10.952;2023-02-15T05:09:52;102100.66;;;3.89;74.51
23427;BME280;41148;45.420;10.952;2023-02-15T05:12:20;102095.31;;;3.86;74.58
23427;BME280;41148;45.420;10.952;2023-02-15T05:14:47;102096.84;;;3.76;74.53
23427;BME280;41148;45.420;10.952;2023-02-15T05:17:15;102092.56;;;3.81;74.65
23427;BME280;41148;45.420;10.952;2023-02-15T05:19:42;102090.97;;;3.88;74.28
23427;BME280;41148;45.420;10.952;2023-02-15T05:22:09;102096.38;;;3.94;73.58
23427;BME280;41148;45.420;10.952;2023-02-15T05:24:37;102087.69;;;3.98;74.12
23427;BME280;41148;45.420;10.952;2023-02-15T05:27:23;102096.44;;;3.97;74.09
23427;BME280;41148;45.420;10.952;2023-02-15T05:30:09;102097.34;;;3.97;74.25
23427;BME280;41148;45.420;10.952;2023-02-15T05:32:39;102099.00;;;3.94;74.59
23427;BME280;41148;45.420;10.952;2023-02-15T05:35:07;102099.78;;;3.88;74.63
23427;BME280;41148;45.420;10.952;2023-02-15T05:37:34;102092.66;;;3.86;74.14
23427;BME280;41148;45.420;10.952;2023-02-15T05:40:02;102101.59;;;3.92;74.34
23427;BME280;41148;45.420;10.952;2023-02-15T05:42:29;102095.47;;;3.93;74.23
23427;BME280;41148;45.420;10.952;2023-02-15T05:44:57;102091.09;;;3.94;73.97
23427;BME280;41148;45.420;10.952;2023-02-15T05:47:24;102121.03;;;3.96;74.06
23427;BME280;41148;45.420;10.952;2023-02-15T05:49:52;102107.78;;;3.93;74.36
23427;BME280;41148;45.420;10.952;2023-02-15T05:52:19;102113.03;;;3.93;74.31
23427;BME280;41148;45.420;10.952;2023-02-15T05:54:46;102112.78;;;3.81;74.44
23427;BME280;41148;45.420;10.952;2023-02-15T05:57:14;102116.28;;;3.80;75.34
23427;BME280;41148;45.420;10.952;2023-02-15T05:59:41;102116.97;;;3.72;75.11
23427;BME280;41148;45.420;10.952;2023-02-15T06:02:09;102118.56;;;3.66;74.97
23427;BME280;41148;45.420;10.952;2023-02-15T06:04:36;102113.28;;;3.64;76.20
23427;BME280;41148;45.420;10.952;2023-02-15T06:07:04;102122.16;;;3.68;75.64
23427;BME280;41148;45.420;10.952;2023-02-15T06:09:31;102120.28;;;3.64;75.72
23427;BME280;41148;45.420;10.952;2023-02-15T06:11:58;102128.13;;;3.59;76.04
23427;BME280;41148;45.420;10.952;2023-02-15T06:14:26;102136.97;;;3.63;75.33
23427;BME280;41148;45.420;10.952;2023-02-15T06:16:53;102130.72;;;3.58;75.60
23427;BME280;41148;45.420;10.952;2023-02-15T06:19:20;102138.72;;;3.62;75.37
23427;BME280;41148;45.420;10.952;2023-02-15T06:21:49;102142.50;;;3.75;75.30
23427;BME280;41148;45.420;10.952;2023-02-15T06:24:17;102140.63;;;3.68;75.35
23427;BME280;41148;45.420;10.952;2023-02-15T06:26:44;102138.03;;;3.71;74.77
23427;BME280;41148;45.420;10.952;2023-02-15T06:29:12;102141.63;;;3.74;75.01
23427;BME280;41148;45.420;10.952;2023-02-15T06:31:39;102151.31;;;3.76;75.33
23427;BME280;41148;45.420;10.952;2023-02-15T06:34:07;102160.03;;;3.73;75.35
23427;BME280;41148;45.420;10.952;2023-02-15T06:36:34;102153.94;;;3.76;74.55
23427;BME280;41148;45.420;10.952;2023-02-15T06:39:03;102148.59;;;3.71;74.36
23427;BME280;41148;45.420;10.952;2023-02-15T06:41:31;102149.44;;;3.70;74.91
23427;BME280;41148;45.420;10.952;2023-02-15T06:43:59;102152.94;;;3.69;74.38
23427;BME280;41148;45.420;10.952;2023-02-15T06:46:27;102161.47;;;3.59;75.94
23427;BME280;41148;45.420;10.952;2023-02-15T06:48:56;102158.91;;;3.62;75.56
23427;BME280;41148;45.420;10.952;2023-02-15T06:51:23;102152.03;;;3.68;75.74
23427;BME280;41148;45.420;10.952;2023-02-15T06:53:51;102146.75;;;3.67;75.82
23427;BME280;41148;45.420;10.952;2023-02-15T06:56:18;102153.72;;;3.66;76.58
23427;BME280;41148;45.420;10.952;2023-02-15T06:58:46;102153.94;;;3.76;75.89
23427;BME280;41148;45.420;10.952;2023-02-15T07:01:16;102151.47;;;3.82;75.96
23427;BME280;41148;45.420;10.952;2023-02-15T07:03:43;102155.16;;;3.88;75.26
23427;BME280;41148;45.420;10.952;2023-02-15T07:06:11;102158.75;;;3.93;74.71
23427;BME280;41148;45.420;10.952;2023-02-15T07:08:39;102151.53;;;3.85;75.26
23427;BME280;41148;45.420;10.952;2023-02-15T07:11:07;102145.38;;;3.84;75.91
23427;BME280;41148;45.420;10.952;2023-02-15T07:13:53;102160.41;;;3.88;76.05
23427;BME280;41148;45.420;10.952;2023-02-15T07:16:21;102160.53;;;3.94;75.66
23427;BME280;41148;45.420;10.952;2023-02-15T07:18:48;102158.78;;;3.95;76.10
23427;BME280;41148;45.420;10.952;2023-02-15T07:21:15;102163.28;;;3.99;75.78
23427;BME280;41148;45.420;10.952;2023-02-15T07:23:43;102161.50;;;3.98;75.71
23427;BME280;41148;45.420;10.952;2023-02-15T07:26:11;102156.41;;;4.06;75.14
23427;BME280;41148;45.420;10.952;2023-02-15T07:28:38;102158.22;;;4.08;75.47
23427;BME280;41148;45.420;10.952;2023-02-15T07:31:06;102152.13;;;4.11;75.65
23427;BME280;41148;45.420;10.952;2023-02-15T07:33:34;102158.59;;;4.25;75.84
23427;BME280;41148;45.420;10.952;2023-02-15T07:36:03;102150.91;;;4.36;75.11
23427;BME280;41148;45.420;10.952;2023-02-15T07:38:35;102135.25;;;4.45;75.04
23427;BME280;41148;45.420;10.952;2023-02-15T07:41:05;102151.31;;;4.55;75.28
23427;BME280;41148;45.420;10.952;2023-02-15T07:43:35;102153.91;;;4.54;75.26
23427;BME280;41148;45.420;10.952;2023-02-15T07:46:05;102160.88;;;4.52;75.87
23427;BME280;41148;45.420;10.952;2023-02-15T07:48:33;102162.03;;;4.65;75.53
23427;BME280;41148;45.420;10.952;2023-02-15T07:51:02;102170.72;;;4.59;75.74
23427;BME280;41148;45.420;10.952;2023-02-15T07:53:30;102159.47;;;4.68;75.28
23427;BME280;41148;45.420;10.952;2023-02-15T07:56:02;102162.41;;;4.83;75.03
23427;BME280;41148;45.420;10.952;2023-02-15T07:58:30;102160.78;;;4.91;74.72
23427;BME280;41148;45.420;10.952;2023-02-15T08:01:29;102158.31;;;5.02;74.83
23427;BME280;41148;45.420;10.952;2023-02-15T08:03:57;102170.88;;;5.13;74.74
23427;BME280;41148;45.420;10.952;2023-02-15T08:06:27;102164.97;;;5.28;74.13
23427;BME280;41148;45.420;10.952;2023-02-15T08:08:55;102165.09;;;5.34;74.05
23427;BME280;41148;45.420;10.952;2023-02-15T08:11:24;102158.25;;;5.47;74.16
23427;BME280;41148;45.420;10.952;2023-02-15T08:13:56;102162.78;;;5.56;73.96
23427;BME280;41148;45.420;10.952;2023-02-15T08:19:04;102166.72;;;5.81;73.26
23427;BME280;41148;45.420;10.952;2023-02-15T08:21:34;102166.94;;;5.93;72.99
23427;BME280;41148;45.420;10.952;2023-02-15T08:24:02;102157.41;;;6.07;73.22
23427;BME280;41148;45.420;10.952;2023-02-15T08:26:31;102154.28;;;7.16;69.49
23427;BME280;41148;45.420;10.952;2023-02-15T08:29:00;102149.81;;;8.33;64.86
23427;BME280;41148;45.420;10.952;2023-02-15T08:31:28;102148.19;;;8.66;62.60
23427;BME280;41148;45.420;10.952;2023-02-15T08:33:56;102136.78;;;9.22;60.39
23427;BME280;41148;45.420;10.952;2023-02-15T08:36:26;102143.47;;;10.85;55.79
23427;BME280;41148;45.420;10.952;2023-02-15T08:38:57;102141.31;;;12.29;50.59
23427;BME280;41148;45.420;10.952;2023-02-15T08:41:32;102142.09;;;13.04;47.81
23427;BME280;41148;45.420;10.952;2023-02-15T08:44:02;102145.19;;;12.02;50.13
23427;BME280;41148;45.420;10.952;2023-02-15T08:46:32;102126.19;;;12.28;49.30
23427;BME280;41148;45.420;10.952;2023-02-15T08:49:01;102132.78;;;12.69;47.97
23427;BME280;41148;45.420;10.952;2023-02-15T08:51:31;102143.09;;;13.55;45.43
23427;BME280;41148;45.420;10.952;2023-02-15T08:54:02;102134.22;;;13.52;45.27
23427;BME280;41148;45.420;10.952;2023-02-15T08:56:33;102136.31;;;13.33;45.05
23427;BME280;41148;45.420;10.952;2023-02-15T08:59:01;102135.25;;;13.44;44.93
23427;BME280;41148;45.420;10.952;2023-02-15T09:01:30;102126.97;;;13.57;45.28
23427;BME280;41148;45.420;10.952;2023-02-15T09:04:01;102131.41;;;13.02;45.89
23427;BME280;41148;45.420;10.952;2023-02-15T09:06:29;102127.13;;;13.48;44.70
23427;BME280;41148;45.420;10.952;2023-02-15T09:08:58;102130.53;;;14.51;42.96
23427;BME280;41148;45.420;10.952;2023-02-15T09:11:28;102127.16;;;15.21;40.51
23427;BME280;41148;45.420;10.952;2023-02-15T09:13:58;102128.69;;;14.53;41.64
23427;BME280;41148;45.420;10.952;2023-02-15T09:16:29;102121.19;;;13.80;43.46
23427;BME280;41148;45.420;10.952;2023-02-15T09:18:57;102136.59;;;13.14;45.12
23427;BME280;41148;45.420;10.952;2023-02-15T09:21:26;102135.63;;;11.82;48.12
23427;BME280;41148;45.420;10.952;2023-02-15T09:23:59;102129.59;;;11.55;49.75
23427;BME280;41148;45.420;10.952;2023-02-15T09:26:29;102135.16;;;11.31;50.22
23427;BME280;41148;45.420;10.952;2023-02-15T09:28:58;102145.09;;;11.07;50.94
23427;BME280;41148;45.420;10.952;2023-02-15T09:31:30;102136.25;;;11.02;51.12
23427;BME280;41148;45.420;10.952;2023-02-15T09:34:00;102132.88;;;10.74;52.13
23427;BME280;41148;45.420;10.952;2023-02-15T09:36:31;102136.56;;;10.49;53.26
23427;BME280;41148;45.420;10.952;2023-02-15T09:39:07;102135.72;;;10.42;53.59
23427;BME280;41148;45.420;10.952;2023-02-15T09:58:45;102134.63;;;10.78;50.58
23427;BME280;41148;45.420;10.952;2023-02-15T10:28:04;102113.16;;;11.03;50.11
23427;BME280;41148;45.420;10.952;2023-02-15T10:30:52;102108.59;;;11.14;49.75
23427;BME280;41148;45.420;10.952;2023-02-15T10:33:41;102107.59;;;11.30;49.74
23427;BME280;41148;45.420;10.952;2023-02-15T10:42:09;102088.69;;;11.55;50.30
23427;BME280;41148;45.420;10.952;2023-02-15T10:50:42;102084.88;;;11.77;50.36
23427;BME280;41148;45.420;10.952;2023-02-15T10:53:43;102084.53;;;12.11;48.78
23427;BME280;41148;45.420;10.952;2023-02-15T10:56:31;102080.78;;;12.28;48.67
23427;BME280;41148;45.420;10.952;2023-02-15T11:01:49;102075.41;;;12.30;48.63
23427;BME280;41148;45.420;10.952;2023-02-15T11:04:45;102076.34;;;12.26;49.24
23427;BME280;41148;45.420;10.952;2023-02-15T11:07:30;102073.56;;;12.33;48.89
23427;BME280;41148;45.420;10.952;2023-02-15T11:12:33;102059.38;;;12.30;48.83
23427;BME280;41148;45.420;10.952;2023-02-15T11:15:05;102059.16;;;12.45;48.08
23427;BME280;41148;45.420;10.952;2023-02-15T11:17:47;102045.66;;;12.53;47.15
23427;BME280;41148;45.420;10.952;2023-02-15T11:23:00;102043.91;;;12.52;48.71
23427;BME280;41148;45.420;10.952;2023-02-15T11:25:31;102042.63;;;12.79;48.22
23427;BME280;41148;45.420;10.952;2023-02-15T11:28:03;102027.28;;;12.90;46.87
23427;BME280;41148;45.420;10.952;2023-02-15T11:30:43;102027.78;;;13.12;46.33
23427;BME280;41148;45.420;10.952;2023-02-15T11:33:39;102008.50;;;12.95;46.79
23427;BME280;41148;45.420;10.952;2023-02-15T11:36:13;102026.38;;;12.89;47.39
23427;BME280;41148;45.420;10.952;2023-02-15T11:38:45;102020.25;;;12.83;47.60
23427;BME280;41148;45.420;10.952;2023-02-15T11:41:22;102021.19;;;12.80;47.70
23427;BME280;41148;45.420;10.952;2023-02-15T11:44:00;102022.88;;;12.87;46.94
23427;BME280;41148;45.420;10.952;2023-02-15T11:46:32;102011.31;;;12.85;46.91
23427;BME280;41148;45.420;10.952;2023-02-15T11:48:59;102008.50;;;12.93;46.92
23427;BME280;41148;45.420;10.952;2023-02-15T11:51:27;102010.78;;;13.16;46.12
23427;BME280;41148;45.420;10.952;2023-02-15T11:53:56;102002.56;;;13.28;45.94
23427;BME280;41148;45.420;10.952;2023-02-15T11:56:24;101999.47;;;13.50;45.02
23427;BME280;41148;45.420;10.952;2023-02-15T11:58:57;101998.69;;;13.44;45.34
23427;BME280;41148;45.420;10.952;2023-02-15T12:01:30;101994.31;;;13.40;45.51
23427;BME280;41148;45.420;10.952;2023-02-15T12:04:04;101990.53;;;13.52;44.69
23427;BME280;41148;45.420;10.952;2023-02-15T12:06:38;101988.09;;;13.38;45.17
23427;BME280;41148;45.420;10.952;2023-02-15T12:09:25;101990.91;;;13.32;44.13
23427;BME280;41148;45.420;10.952;2023-02-15T12:14:58;101984.59;;;13.80;43.47
23427;BME280;41148;45.420;10.952;2023-02-15T12:17:52;101992.03;;;13.65;44.13
23427;BME280;41148;45.420;10.952;2023-02-15T12:20:29;101986.94;;;13.53;44.63
23427;BME280;41148;45.420;10.952;2023-02-15T12:23:03;101981.25;;;13.68;43.80
23427;BME280;41148;45.420;10.952;2023-02-15T12:25:37;101976.34;;;13.90;43.72
23427;BME280;41148;45.420;10.952;2023-02-15T12:30:49;101981.25;;;13.68;44.40
23427;BME280;41148;45.420;10.952;2023-02-15T12:33:30;101971.56;;;13.63;44.44
23427;BME280;41148;45.420;10.952;2023-02-15T12:36:09;101976.03;;;13.62;44.23
23427;BME280;41148;45.420;10.952;2023-02-15T12:38:38;101974.28;;;13.60;44.93
23427;BME280;41148;45.420;10.952;2023-02-15T12:41:24;101967.06;;;13.65;44.46
23427;BME280;41148;45.420;10.952;2023-02-15T12:44:15;101970.47;;;13.73;44.23
23427;BME280;41148;45.420;10.952;2023-02-15T12:49:23;101957.44;;;13.96;42.67
23427;BME280;41148;45.420;10.952;2023-02-15T12:51:53;101954.06;;;14.27;41.66
23427;BME280;41148;45.420;10.952;2023-02-15T12:54:32;101951.81;;;14.49;41.97
23427;BME280;41148;45.420;10.952;2023-02-15T12:57:20;101948.88;;;14.21;42.32
23427;BME280;41148;45.420;10.952;2023-02-15T13:02:25;101934.00;;;14.06;41.98
23427;BME280;41148;45.420;10.952;2023-02-15T13:04:55;101931.78;;;14.25;41.08
23427;BME280;41148;45.420;10.952;2023-02-15T13:07:28;101924.00;;;14.53;40.74
23427;BME280;41148;45.420;10.952;2023-02-15T13:09:57;101920.81;;;14.73;39.89
23427;BME280;41148;45.420;10.952;2023-02-15T13:12:27;101917.56;;;14.60;40.58
23427;BME280;41148;45.420;10.952;2023-02-15T13:14:58;101907.22;;;14.43;41.32
23427;BME280;41148;45.420;10.952;2023-02-15T13:17:29;101908.19;;;14.41;41.79
23427;BME280;41148;45.420;10.952;2023-02-15T13:20:05;101902.22;;;14.28;41.97
23427;BME280;41148;45.420;10.952;2023-02-15T13:22:40;101905.81;;;14.27;41.51
23427;BME280;41148;45.420;10.952;2023-02-15T13:25:19;101902.22;;;14.28;41.57
23427;BME280;41148;45.420;10.952;2023-02-15T13:27:52;101902.22;;;14.28;41.15
23427;BME280;41148;45.420;10.952;2023-02-15T13:30:27;101899.50;;;14.31;40.92
23427;BME280;41148;45.420;10.952;2023-02-15T13:33:20;101895.31;;;14.19;40.42
23427;BME280;41148;45.420;10.952;2023-02-15T13:35:54;101900.38;;;14.31;40.37
23427;BME280;41148;45.420;10.952;2023-02-15T13:41:19;101873.25;;;14.44;38.85
23427;BME280;41148;45.420;10.952;2023-02-15T13:44:04;101883.09;;;14.45;39.58
23427;BME280;41148;45.420;10.952;2023-02-15T13:52:17;101881.28;;;14.44;39.54
23427;BME280;41148;45.420;10.952;2023-02-15T13:55:12;101878.50;;;14.50;39.75
23427;BME280;41148;45.420;10.952;2023-02-15T14:06:16;101872.63;;;14.70;38.76
23427;BME280;41148;45.420;10.952;2023-02-15T14:11:32;101884.56;;;14.56;39.15
23427;BME280;41148;45.420;10.952;2023-02-15T14:14:09;101880.00;;;14.62;36.35
23427;BME280;41148;45.420;10.952;2023-02-15T14:17:04;101881.84;;;14.59;35.97
23427;BME280;41148;45.420;10.952;2023-02-15T14:19:52;101880.22;;;14.52;36.32
23427;BME280;41148;45.420;10.952;2023-02-15T14:25:15;101891.38;;;15.04;38.28
23427;BME280;41148;45.420;10.952;2023-02-15T14:30:37;101883.13;;;14.79;40.11
23427;BME280;41148;45.420;10.952;2023-02-15T14:33:10;101886.50;;;14.85;40.45
23427;BME280;41148;45.420;10.952;2023-02-15T14:35:45;101882.44;;;14.71;41.19
23427;BME280;41148;45.420;10.952;2023-02-15T14:38:32;101882.63;;;14.63;41.56
23427;BME280;41148;45.420;10.952;2023-02-15T14:41:41;101879.03;;;14.64;41.24
23427;BME280;41148;45.420;10.952;2023-02-15T14:44:37;101880.50;;;14.76;41.06
23427;BME280;41148;45.420;10.952;2023-02-15T14:49:54;101877.00;;;15.06;39.58
23427;BME280;41148;45.420;10.952;2023-02-15T14:52:22;101876.97;;;15.08;40.30
23427;BME280;41148;45.420;10.952;2023-02-15T14:59:53;101879.06;;;14.95;41.52
23427;BME280;41148;45.420;10.952;2023-02-15T15:02:53;101877.56;;;14.85;42.27
23427;BME280;41148;45.420;10.952;2023-02-15T15:05:31;101872.19;;;14.85;42.78
23427;BME280;41148;45.420;10.952;2023-02-15T15:08:04;101876.63;;;14.87;42.49
23427;BME280;41148;45.420;10.952;2023-02-15T15:10:39;101877.84;;;14.74;43.09
23427;BME280;41148;45.420;10.952;2023-02-15T15:13:36;101871.81;;;14.66;43.24
23427;BME280;41148;45.420;10.952;2023-02-15T15:16:28;101873.09;;;14.51;43.64
23427;BME280;41148;45.420;10.952;2023-02-15T15:19:00;101871.44;;;14.46;43.97